Time;durP1;ratioP1;P1;durP2;ratioP2;P2;SDS_P1;SDS_P2;PMS_P1;PMS_P2;Temp;Humidity;BMP_temperature;BMP_pressure;BME280_temperature;BME280_humidity;BME280_pressure;Samples;Min_cycle;Max_cycle;Signal;HPM_P1;HPM_P2
2022/04/03 00:00:20;;;;;;;9.52;8.52;;;;;;;;;;5062679;28;20201;-67
2022/04/03 00:02:46;;;;;;;9.65;8.65;;;;;;;;;;5063107;28;20379;-67
2022/04/03 00:05:14;;;;;;;9.88;8.07;;;;;;;;;;5062841;28;20213;-67
2022/04/03 00:07:41;;;;;;;8.30;7.63;;;;;;;;;;5062503;28;20197;-67
2022/04/03 00:10:09;;;;;;;9.63;8.02;;;;;;;;;;5062838;28;20570;-67
2022/04/03 00:12:35;;;;;;;9.00;8.18;;;;;;;;;;5062820;28;20509;-67
2022/04/03 00:15:01;;;;;;;8.85;8.05;;;;;;;;;;5062474;28;20220;-67
2022/04/03 00:17:28;;;;;;;9.50;8.60;;;;;;;;;;5062547;28;20520;-67
2022/04/03 00:19:54;;;;;;;8.40;7.60;;;;;;;;;;5062623;28;20272;-67
2022/04/03 00:22:23;;;;;;;8.60;7.90;;;;;;;;;;5062440;28;20197;-67
2022/04/03 00:24:49;;;;;;;8.30;7.60;;;;;;;;;;5062373;28;20524;-67
2022/04/03 00:27:15;;;;;;;9.27;8.38;;;;;;;;;;5062237;28;20198;-67
2022/04/03 00:29:41;;;;;;;8.77;7.53;;;;;;;;;;5062248;28;20435;-67
2022/04/03 00:32:08;;;;;;;9.80;8.73;;;;;;;;;;5062502;28;20500;-67
2022/04/03 00:34:35;;;;;;;8.55;7.75;;;;;;;;;;5061911;28;20213;-67
2022/04/03 00:37:01;;;;;;;8.85;8.02;;;;;;;;;;5061961;28;20252;-67
2022/04/03 00:39:28;;;;;;;8.30;7.55;;;;;;;;;;5062715;28;20383;-67
2022/04/03 00:41:55;;;;;;;8.90;7.93;;;;;;;;;;5062227;28;20267;-67
2022/04/03 00:44:21;;;;;;;9.30;8.40;;;;;;;;;;5062057;28;20212;-67
2022/04/03 00:46:47;;;;;;;9.07;8.27;;;;;;;;;;5062146;28;20235;-67
2022/04/03 00:49:14;;;;;;;8.48;7.80;;;;;;;;;;5062248;28;20204;-67
2022/04/03 00:51:40;;;;;;;9.75;8.75;;;;;;;;;;5062242;28;20208;-67
2022/04/03 00:54:07;;;;;;;9.38;8.57;;;;;;;;;;5062060;28;20217;-68
2022/04/03 00:56:35;;;;;;;9.18;8.23;;;;;;;;;;5061892;28;20205;-67
2022/04/03 00:59:02;;;;;;;10.07;9.05;;;;;;;;;;5062488;28;20411;-67
2022/04/03 01:01:28;;;;;;;10.27;8.88;;;;;;;;;;5062124;28;20515;-67
2022/04/03 01:03:54;;;;;;;9.85;8.85;;;;;;;;;;5062138;28;20532;-67
2022/04/03 01:06:20;;;;;;;10.40;9.43;;;;;;;;;;5061736;28;20270;-67
2022/04/03 01:08:47;;;;;;;10.70;8.95;;;;;;;;;;5062009;28;20501;-67
2022/04/03 01:11:13;;;;;;;9.73;8.75;;;;;;;;;;5062349;28;20417;-67
2022/04/03 01:13:46;;;;;;;10.13;9.23;;;;;;;;;;5062041;28;20558;-67
2022/04/03 01:16:13;;;;;;;9.45;8.63;;;;;;;;;;5061856;28;20197;-67
2022/04/03 01:18:39;;;;;;;11.30;10.15;;;;;;;;;;5061981;28;20197;-67
2022/04/03 01:21:05;;;;;;;11.93;10.18;;;;;;;;;;5062294;28;20205;-67
2022/04/03 01:23:31;;;;;;;11.00;9.75;;;;;;;;;;5061751;28;20246;-67
2022/04/03 01:25:59;;;;;;;10.82;9.82;;;;;;;;;;5061343;28;20212;-67
2022/04/03 01:28:26;;;;;;;10.77;9.82;;;;;;;;;;5061806;28;20197;-67
2022/04/03 01:30:52;;;;;;;10.75;9.68;;;;;;;;;;5061903;28;20500;-67
2022/04/03 01:33:18;;;;;;;10.93;9.73;;;;;;;;;;5061741;28;20220;-67
2022/04/03 01:35:45;;;;;;;11.70;9.52;;;;;;;;;;5061725;28;20200;-67
2022/04/03 01:38:11;;;;;;;9.73;8.82;;;;;;;;;;5061419;28;20203;-67
2022/04/03 01:40:38;;;;;;;11.23;9.77;;;;;;;;;;5061557;28;20204;-67
2022/04/03 01:43:06;;;;;;;10.60;9.50;;;;;;;;;;5062002;28;20201;-67
2022/04/03 01:45:32;;;;;;;10.50;9.40;;;;;;;;;;5061801;28;20205;-67
2022/04/03 01:47:59;;;;;;;12.23;9.95;;;;;;;;;;5064606;28;20205;-67
2022/04/03 01:50:25;;;;;;;10.48;9.45;;;;;;;;;;5065560;28;20395;-67
2022/04/03 01:52:52;;;;;;;10.85;9.70;;;;;;;;;;5065350;28;20226;-67
2022/04/03 01:55:18;;;;;;;11.07;9.90;;;;;;;;;;5065180;28;20544;-67
2022/04/03 01:57:45;;;;;;;10.13;9.25;;;;;;;;;;5064976;28;20243;-67
2022/04/03 02:00:13;;;;;;;10.75;9.73;;;;;;;;;;5065077;28;20365;-67
2022/04/03 02:02:39;;;;;;;10.98;9.90;;;;;;;;;;5065059;28;20200;-67
2022/04/03 02:05:06;;;;;;;11.73;9.32;;;;;;;;;;5065264;28;20259;-67
2022/04/03 02:07:33;;;;;;;11.10;10.05;;;;;;;;;;5064855;28;20204;-68
2022/04/03 02:09:59;;;;;;;10.63;9.43;;;;;;;;;;5064964;28;20205;-67
2022/04/03 02:12:25;;;;;;;11.70;10.45;;;;;;;;;;5064849;28;20243;-67
2022/04/03 02:14:52;;;;;;;11.80;10.00;;;;;;;;;;5065185;28;20217;-68
2022/04/03 02:17:19;;;;;;;12.90;9.95;;;;;;;;;;5064438;28;20204;-67
2022/04/03 02:19:45;;;;;;;14.82;10.35;;;;;;;;;;5064698;28;20243;-67
2022/04/03 02:22:14;;;;;;;11.32;10.07;;;;;;;;;;5064620;28;20212;-67
2022/04/03 02:24:40;;;;;;;13.10;10.35;;;;;;;;;;5064590;28;20263;-68
2022/04/03 02:27:06;;;;;;;10.93;9.82;;;;;;;;;;5064474;28;20197;-67
2022/04/03 02:29:33;;;;;;;11.65;10.25;;;;;;;;;;5064478;28;20197;-67
2022/04/03 02:31:59;;;;;;;11.45;10.35;;;;;;;;;;5064445;28;20219;-67
2022/04/03 02:34:26;;;;;;;11.15;9.82;;;;;;;;;;5064311;28;20225;-67
2022/04/03 02:36:53;;;;;;;12.18;9.90;;;;;;;;;;5064609;28;20493;-67
2022/04/03 02:39:20;;;;;;;12.15;10.55;;;;;;;;;;5064428;28;20243;-67
2022/04/03 02:41:47;;;;;;;11.60;10.50;;;;;;;;;;5064352;28;20201;-67
2022/04/03 02:44:13;;;;;;;11.70;10.50;;;;;;;;;;5064198;28;20193;-67
2022/04/03 02:46:40;;;;;;;11.10;9.95;;;;;;;;;;5064094;28;20271;-68
2022/04/03 02:49:08;;;;;;;10.70;9.70;;;;;;;;;;5064544;28;20488;-67
2022/04/03 02:51:35;;;;;;;14.40;10.80;;;;;;;;;;5064339;28;20201;-67
2022/04/03 02:54:02;;;;;;;13.35;10.70;;;;;;;;;;5064101;28;20217;-67
2022/04/03 02:56:28;;;;;;;13.80;11.07;;;;;;;;;;5063694;28;20264;-67
2022/04/03 02:58:55;;;;;;;11.93;10.05;;;;;;;;;;5063191;28;20419;-67
2022/04/03 03:01:22;;;;;;;13.45;11.00;;;;;;;;;;5064046;28;20193;-67
2022/04/03 03:03:48;;;;;;;14.43;11.27;;;;;;;;;;5064224;28;20204;-67
2022/04/03 03:06:14;;;;;;;14.32;11.00;;;;;;;;;;5063532;28;20284;-67
2022/04/03 03:08:42;;;;;;;11.65;10.48;;;;;;;;;;5063848;28;20505;-67
2022/04/03 03:11:09;;;;;;;13.23;11.40;;;;;;;;;;5063611;28;20239;-67
2022/04/03 03:13:35;;;;;;;10.85;9.82;;;;;;;;;;5063653;28;20268;-67
2022/04/03 03:16:02;;;;;;;12.65;11.10;;;;;;;;;;5063640;28;20221;-67
2022/04/03 03:18:28;;;;;;;12.63;10.50;;;;;;;;;;5063743;28;20201;-67
2022/04/03 03:20:54;;;;;;;12.15;10.85;;;;;;;;;;5063777;28;20197;-67
2022/04/03 03:23:21;;;;;;;15.00;12.88;;;;;;;;;;5063551;28;20197;-67
2022/04/03 03:25:48;;;;;;;13.60;11.55;;;;;;;;;;5063438;28;20273;-67
2022/04/03 03:28:15;;;;;;;17.80;11.95;;;;;;;;;;5063521;28;20242;-67
2022/04/03 03:30:41;;;;;;;13.40;12.05;;;;;;;;;;5063560;28;20201;-67
2022/04/03 03:33:09;;;;;;;14.18;12.70;;;;;;;;;;5063319;28;20197;-67
2022/04/03 03:35:35;;;;;;;12.57;11.25;;;;;;;;;;5063208;28;20229;-68
2022/04/03 03:38:01;;;;;;;16.08;12.40;;;;;;;;;;5063158;28;20504;-67
2022/04/03 03:40:28;;;;;;;13.45;12.05;;;;;;;;;;5063012;28;20197;-68
2022/04/03 03:42:56;;;;;;;15.15;11.45;;;;;;;;;;5063607;28;20201;-67
2022/04/03 03:45:22;;;;;;;13.13;11.80;;;;;;;;;;5063256;28;20193;-67
2022/04/03 03:47:49;;;;;;;14.73;13.02;;;;;;;;;;5062831;28;20235;-67
2022/04/03 03:50:15;;;;;;;14.07;11.95;;;;;;;;;;5063103;28;20235;-67
2022/04/03 03:52:42;;;;;;;17.08;13.75;;;;;;;;;;5062849;28;20200;-67
2022/04/03 03:55:08;;;;;;;15.82;13.05;;;;;;;;;;5062718;28;20224;-67
2022/04/03 03:57:35;;;;;;;15.23;13.40;;;;;;;;;;5062827;28;20197;-67
2022/04/03 04:00:03;;;;;;;15.32;12.98;;;;;;;;;;5062984;28;20251;-67
2022/04/03 04:02:29;;;;;;;15.85;13.18;;;;;;;;;;5062876;28;20496;-67
2022/04/03 04:04:56;;;;;;;13.32;11.85;;;;;;;;;;5062760;28;20568;-67
2022/04/03 04:07:22;;;;;;;16.08;13.32;;;;;;;;;;5062322;28;20205;-68
2022/04/03 04:09:48;;;;;;;13.88;12.32;;;;;;;;;;5061651;28;20239;-67
2022/04/03 04:12:15;;;;;;;15.20;12.35;;;;;;;;;;5062557;28;20227;-67
2022/04/03 04:14:41;;;;;;;19.10;13.05;;;;;;;;;;5062451;28;20221;-67
2022/04/03 04:17:09;;;;;;;13.13;11.70;;;;;;;;;;5062380;28;20213;-67
2022/04/03 04:19:36;;;;;;;13.82;12.35;;;;;;;;;;5062540;28;20505;-67
2022/04/03 04:22:02;;;;;;;15.23;12.90;;;;;;;;;;5062380;28;20242;-67
2022/04/03 04:24:28;;;;;;;14.95;12.45;;;;;;;;;;5062573;28;20560;-67
2022/04/03 04:26:55;;;;;;;15.75;12.93;;;;;;;;;;5062324;28;20201;-67
2022/04/03 04:29:22;;;;;;;15.48;12.80;;;;;;;;;;5062524;28;20196;-67
2022/04/03 04:31:48;;;;;;;14.15;12.73;;;;;;;;;;5062277;28;20201;-67
2022/04/03 04:34:17;;;;;;;13.82;12.30;;;;;;;;;;5062306;28;20196;-67
2022/04/03 04:36:43;;;;;;;16.65;12.25;;;;;;;;;;5062378;28;20193;-67
2022/04/03 04:39:09;;;;;;;15.02;12.18;;;;;;;;;;5062501;28;20205;-67
2022/04/03 04:41:35;;;;;;;16.27;12.85;;;;;;;;;;5062303;28;20219;-68
2022/04/03 04:44:02;;;;;;;13.13;11.82;;;;;;;;;;5062357;28;20235;-68
2022/04/03 04:46:28;;;;;;;14.80;13.18;;;;;;;;;;5062315;28;20193;-68
2022/04/03 04:48:54;;;;;;;14.30;12.82;;;;;;;;;;5062464;28;20193;-68
2022/04/03 04:51:22;;;;;;;14.77;12.20;;;;;;;;;;5061957;28;20201;-68
2022/04/03 04:53:48;;;;;;;16.42;12.48;;;;;;;;;;5061942;28;20200;-68
2022/04/03 04:56:14;;;;;;;15.27;13.00;;;;;;;;;;5061840;28;20259;-68
2022/04/03 04:58:41;;;;;;;15.80;13.02;;;;;;;;;;5062123;28;20197;-68
2022/04/03 05:01:08;;;;;;;17.05;12.85;;;;;;;;;;5062038;28;20204;-68
2022/04/03 05:03:34;;;;;;;15.32;12.88;;;;;;;;;;5061895;28;20205;-68
2022/04/03 05:06:00;;;;;;;14.50;12.73;;;;;;;;;;5061546;28;20235;-68
2022/04/03 05:08:29;;;;;;;13.85;12.38;;;;;;;;;;5062082;28;20197;-68
2022/04/03 05:10:55;;;;;;;14.70;12.57;;;;;;;;;;5062044;28;20259;-68
2022/04/03 05:13:25;;;;;;;14.10;12.45;;;;;;;;;;5061914;28;20562;-68
2022/04/03 05:15:52;;;;;;;17.15;12.88;;;;;;;;;;5061637;28;20452;-68
2022/04/03 05:18:18;;;;;;;14.25;12.73;;;;;;;;;;5061926;28;20196;-68
2022/04/03 05:20:44;;;;;;;17.38;13.00;;;;;;;;;;5061745;28;20201;-68
2022/04/03 05:23:10;;;;;;;17.30;13.30;;;;;;;;;;5065702;28;20197;-68
2022/04/03 05:25:38;;;;;;;18.50;12.77;;;;;;;;;;5065655;28;20227;-68
2022/04/03 05:28:05;;;;;;;13.13;11.82;;;;;;;;;;5065409;28;20193;-68
2022/04/03 05:30:31;;;;;;;14.75;12.23;;;;;;;;;;5065628;28;20197;-68
2022/04/03 05:32:57;;;;;;;13.68;12.05;;;;;;;;;;5065509;28;20201;-68
2022/04/03 05:35:24;;;;;;;16.70;12.55;;;;;;;;;;5065576;28;20221;-68
2022/04/03 05:37:50;;;;;;;14.05;12.35;;;;;;;;;;5065373;28;20401;-68
2022/04/03 05:40:16;;;;;;;15.23;12.43;;;;;;;;;;5065542;28;20196;-68
2022/04/03 05:42:44;;;;;;;15.27;11.90;;;;;;;;;;5065477;28;20197;-68
2022/04/03 05:45:10;;;;;;;16.33;12.48;;;;;;;;;;5065320;28;20554;-68
2022/04/03 05:47:37;;;;;;;14.93;12.52;;;;;;;;;;5065075;28;20220;-68
2022/04/03 05:50:04;;;;;;;14.18;12.38;;;;;;;;;;5065264;28;20197;-68
2022/04/03 05:52:39;;;;;;;13.68;12.35;;;;;;;;;;5065531;28;20333;-68
2022/04/03 05:55:07;;;;;;;14.00;12.35;;;;;;;;;;5065207;28;20209;-68
2022/04/03 05:57:34;;;;;;;12.93;11.30;;;;;;;;;;5064958;28;20390;-68
2022/04/03 06:00:01;;;;;;;14.38;12.10;;;;;;;;;;5064928;28;20201;-68
2022/04/03 06:02:28;;;;;;;13.80;12.18;;;;;;;;;;5065204;28;20204;-68
2022/04/03 06:04:54;;;;;;;13.75;12.30;;;;;;;;;;5065352;28;20201;-68
2022/04/03 06:07:20;;;;;;;13.38;11.70;;;;;;;;;;5064735;28;20239;-68
2022/04/03 06:09:46;;;;;;;14.43;10.90;;;;;;;;;;5064931;28;20196;-68
2022/04/03 06:12:13;;;;;;;14.10;11.63;;;;;;;;;;5064910;28;20197;-68
2022/04/03 06:14:40;;;;;;;12.95;11.55;;;;;;;;;;5064880;28;20471;-68
2022/04/03 06:17:07;;;;;;;12.18;10.93;;;;;;;;;;5064546;28;20228;-68
2022/04/03 06:19:34;;;;;;;13.00;11.70;;;;;;;;;;5064946;28;20197;-68
2022/04/03 06:22:00;;;;;;;15.00;12.18;;;;;;;;;;5064775;28;20277;-68
2022/04/03 06:24:26;;;;;;;42.63;26.15;;;;;;;;;;5065210;28;20197;-69
2022/04/03 06:26:52;;;;;;;15.50;12.85;;;;;;;;;;5064227;28;20201;-68
2022/04/03 06:29:18;;;;;;;12.55;10.70;;;;;;;;;;5064445;28;20205;-68
2022/04/03 06:31:45;;;;;;;12.10;10.85;;;;;;;;;;5064700;28;20197;-69
2022/04/03 06:34:12;;;;;;;12.68;10.63;;;;;;;;;;5063441;28;20504;-69
2022/04/03 06:36:39;;;;;;;11.60;10.40;;;;;;;;;;5064115;28;20267;-69
2022/04/03 06:39:05;;;;;;;11.43;10.20;;;;;;;;;;5064311;28;20267;-68
2022/04/03 06:41:32;;;;;;;10.98;9.88;;;;;;;;;;5064699;28;20243;-68
2022/04/03 06:44:00;;;;;;;12.65;10.00;;;;;;;;;;5064474;28;20201;-68
2022/04/03 06:46:26;;;;;;;10.60;9.57;;;;;;;;;;5064241;28;20201;-68
2022/04/03 06:48:53;;;;;;;11.77;9.57;;;;;;;;;;5064339;28;20201;-68
2022/04/03 06:51:20;;;;;;;10.73;9.70;;;;;;;;;;5064225;28;20201;-68
2022/04/03 06:53:46;;;;;;;10.82;9.75;;;;;;;;;;5064026;28;20197;-68
2022/04/03 06:56:14;;;;;;;11.90;10.73;;;;;;;;;;5063567;28;20213;-68
2022/04/03 06:58:40;;;;;;;12.38;10.40;;;;;;;;;;5063974;28;20220;-68
2022/04/03 07:01:06;;;;;;;12.60;11.02;;;;;;;;;;5064076;28;20201;-68
2022/04/03 07:03:32;;;;;;;12.80;10.80;;;;;;;;;;5063746;28;20197;-69
2022/04/03 07:05:59;;;;;;;14.38;10.63;;;;;;;;;;5063313;28;20221;-68
2022/04/03 07:08:28;;;;;;;9.25;8.30;;;;;;;;;;5063509;28;20414;-68
2022/04/03 07:10:54;;;;;;;8.68;7.78;;;;;;;;;;5063316;28;20205;-68
2022/04/03 07:13:20;;;;;;;8.20;7.50;;;;;;;;;;5063644;28;20231;-68
2022/04/03 07:15:48;;;;;;;8.60;7.80;;;;;;;;;;5063317;28;20213;-69
2022/04/03 07:18:15;;;;;;;8.07;6.80;;;;;;;;;;5063275;28;20229;-68
2022/04/03 07:20:41;;;;;;;8.07;6.95;;;;;;;;;;5063443;28;20228;-68
2022/04/03 07:23:07;;;;;;;7.35;6.70;;;;;;;;;;5063285;28;20377;-68
2022/04/03 07:25:35;;;;;;;8.32;7.53;;;;;;;;;;5063403;28;20205;-68
2022/04/03 07:28:01;;;;;;;7.15;6.40;;;;;;;;;;5063318;28;20197;-68
2022/04/03 07:30:28;;;;;;;6.57;6.07;;;;;;;;;;5063310;28;20427;-69
2022/04/03 07:32:54;;;;;;;5.78;5.38;;;;;;;;;;5063116;28;20206;-68
2022/04/03 07:35:20;;;;;;;6.65;6.05;;;;;;;;;;5062931;28;20516;-68
2022/04/03 07:37:47;;;;;;;6.10;5.70;;;;;;;;;;5062805;28;20424;-68
2022/04/03 07:40:13;;;;;;;7.10;6.50;;;;;;;;;;5063293;28;20512;-69
2022/04/03 07:42:41;;;;;;;8.18;5.93;;;;;;;;;;5063127;28;20626;-68
2022/04/03 07:45:08;;;;;;;5.95;5.45;;;;;;;;;;5062906;28;20400;-68
2022/04/03 07:47:34;;;;;;;5.57;5.07;;;;;;;;;;5062938;28;20247;-69
2022/04/03 07:50:03;;;;;;;6.68;6.18;;;;;;;;;;5062806;28;20359;-69
2022/04/03 07:52:30;;;;;;;8.23;6.40;;;;;;;;;;5062650;28;20201;-69
2022/04/03 07:54:56;;;;;;;6.15;5.55;;;;;;;;;;5062869;28;20466;-68
2022/04/03 07:57:24;;;;;;;6.03;5.30;;;;;;;;;;5062476;28;20217;-68
2022/04/03 07:59:52;;;;;;;7.32;5.90;;;;;;;;;;5062734;28;20251;-69
2022/04/03 08:02:18;;;;;;;5.43;5.03;;;;;;;;;;5062674;28;20197;-68
2022/04/03 08:04:44;;;;;;;6.30;5.80;;;;;;;;;;5062560;28;20235;-69
2022/04/03 08:07:11;;;;;;;6.57;5.97;;;;;;;;;;5062147;28;20421;-68
2022/04/03 08:09:37;;;;;;;5.95;5.45;;;;;;;;;;5062680;28;20426;-69
2022/04/03 08:12:04;;;;;;;6.15;5.65;;;;;;;;;;5062297;28;20276;-68
2022/04/03 08:14:31;;;;;;;5.63;5.05;;;;;;;;;;5062398;28;20197;-68
2022/04/03 08:16:59;;;;;;;5.63;4.75;;;;;;;;;;5062000;28;20220;-68
2022/04/03 08:19:25;;;;;;;4.53;4.30;;;;;;;;;;5062024;28;20197;-69
2022/04/03 08:21:51;;;;;;;5.32;4.82;;;;;;;;;;5062049;28;20205;-69
2022/04/03 08:24:18;;;;;;;5.20;4.70;;;;;;;;;;5062092;28;20197;-68
2022/04/03 08:26:45;;;;;;;6.10;5.50;;;;;;;;;;5061709;28;20255;-69
2022/04/03 08:29:11;;;;;;;7.15;5.40;;;;;;;;;;5062395;28;20235;-68
2022/04/03 08:31:37;;;;;;;5.97;5.25;;;;;;;;;;5062323;28;20427;-68
2022/04/03 08:34:05;;;;;;;5.80;5.30;;;;;;;;;;5061682;28;20412;-68
2022/04/03 08:36:31;;;;;;;8.20;6.10;;;;;;;;;;5061819;28;20442;-68
2022/04/03 08:38:57;;;;;;;5.88;5.43;;;;;;;;;;5062019;28;20197;-68
2022/04/03 08:41:23;;;;;;;6.72;6.05;;;;;;;;;;5061591;28;20251;-68
2022/04/03 08:43:49;;;;;;;6.90;6.20;;;;;;;;;;5061624;28;20201;-68
2022/04/03 08:46:16;;;;;;;7.13;6.32;;;;;;;;;;5061334;28;20200;-68
2022/04/03 08:48:44;;;;;;;7.30;6.55;;;;;;;;;;5061572;28;20196;-68
2022/04/03 08:51:12;;;;;;;6.20;5.70;;;;;;;;;;5062015;28;20215;-68
2022/04/03 08:53:39;;;;;;;6.30;5.70;;;;;;;;;;5061949;28;20197;-68
2022/04/03 08:56:06;;;;;;;6.20;5.60;;;;;;;;;;5063505;28;20213;-68
2022/04/03 08:58:32;;;;;;;7.68;5.90;;;;;;;;;;5068406;28;20203;-68
2022/04/03 09:00:58;;;;;;;6.15;5.60;;;;;;;;;;5068277;28;20197;-68
2022/04/03 09:03:25;;;;;;;5.55;5.15;;;;;;;;;;5068289;28;20203;-68
2022/04/03 09:05:51;;;;;;;6.55;5.85;;;;;;;;;;5068206;28;20221;-68
2022/04/03 09:08:19;;;;;;;6.50;5.38;;;;;;;;;;5068203;28;20259;-68
2022/04/03 09:11:02;;;;;;;5.70;5.20;;;;;;;;;;5068458;28;20267;-68
2022/04/03 09:13:28;;;;;;;6.93;5.30;;;;;;;;;;5068445;28;20197;-68
2022/04/03 09:15:54;;;;;;;5.85;5.32;;;;;;;;;;5068235;28;20499;-68
2022/04/03 09:18:21;;;;;;;6.85;6.22;;;;;;;;;;5068048;28;20197;-68
2022/04/03 09:20:47;;;;;;;5.80;5.30;;;;;;;;;;5068336;28;20197;-68
2022/04/03 09:23:17;;;;;;;4.95;4.55;;;;;;;;;;5068228;28;20196;-68
2022/04/03 09:25:46;;;;;;;4.88;4.47;;;;;;;;;;5068526;28;20204;-68
2022/04/03 09:28:13;;;;;;;5.20;4.68;;;;;;;;;;5067892;28;20205;-68
2022/04/03 09:30:40;;;;;;;6.97;4.68;;;;;;;;;;5068119;28;20196;-68
2022/04/03 09:33:07;;;;;;;4.97;4.57;;;;;;;;;;5068620;28;20385;-68
2022/04/03 09:35:53;;;;;;;4.45;4.03;;;;;;;;;;5068247;28;20201;-68
2022/04/03 09:38:19;;;;;;;5.15;4.72;;;;;;;;;;5068155;28;20193;-68
2022/04/03 09:40:47;;;;;;;4.53;4.13;;;;;;;;;;5067964;28;20197;-68
2022/04/03 09:43:18;;;;;;;4.13;3.83;;;;;;;;;;5068342;28;20220;-68
2022/04/03 09:45:45;;;;;;;6.63;4.97;;;;;;;;;;5068017;28;20243;-68
2022/04/03 09:48:18;;;;;;;4.97;4.47;;;;;;;;;;5067965;28;20263;-68
2022/04/03 09:50:54;;;;;;;4.50;4.03;;;;;;;;;;5068056;28;20197;-68
2022/04/03 09:53:20;;;;;;;4.28;3.88;;;;;;;;;;5067809;28;20203;-68
2022/04/03 09:55:48;;;;;;;3.80;3.60;;;;;;;;;;5067786;28;20243;-68
2022/04/03 09:58:15;;;;;;;5.47;4.82;;;;;;;;;;5067720;28;20299;-68
2022/04/03 10:00:42;;;;;;;4.38;3.55;;;;;;;;;;5068216;28;20447;-68
2022/04/03 10:03:10;;;;;;;4.45;4.15;;;;;;;;;;5068578;28;20524;-68
2022/04/03 10:05:37;;;;;;;4.35;4.05;;;;;;;;;;5067736;28;20263;-68
2022/04/03 10:08:04;;;;;;;4.60;4.18;;;;;;;;;;5065749;28;20200;-68
2022/04/03 10:10:31;;;;;;;5.22;4.80;;;;;;;;;;5064964;28;20193;-68
2022/04/03 10:12:59;;;;;;;4.72;4.18;;;;;;;;;;5065238;28;20268;-68
2022/04/03 10:15:25;;;;;;;5.30;4.70;;;;;;;;;;5064674;28;20415;-68
2022/04/03 10:17:52;;;;;;;5.10;4.40;;;;;;;;;;5064615;28;20229;-69
2022/04/03 10:20:19;;;;;;;4.80;4.40;;;;;;;;;;5064519;28;20527;-68
2022/04/03 10:22:46;;;;;;;6.55;4.57;;;;;;;;;;5064451;28;20533;-68
2022/04/03 10:25:16;;;;;;;4.50;4.07;;;;;;;;;;5064812;28;20216;-68
2022/04/03 10:27:44;;;;;;;4.68;4.28;;;;;;;;;;5064453;28;20193;-68
2022/04/03 10:30:12;;;;;;;4.65;4.00;;;;;;;;;;5064240;28;20216;-68
2022/04/03 10:32:40;;;;;;;3.63;3.42;;;;;;;;;;5064350;28;20222;-68
2022/04/03 10:35:07;;;;;;;3.38;3.28;;;;;;;;;;5064115;28;20205;-68
2022/04/03 10:37:34;;;;;;;3.50;3.30;;;;;;;;;;5064155;28;20558;-68
2022/04/03 10:40:06;;;;;;;4.28;3.97;;;;;;;;;;5064083;28;20264;-68
2022/04/03 10:42:32;;;;;;;4.72;4.03;;;;;;;;;;5064071;28;20197;-68
2022/04/03 10:45:18;;;;;;;4.47;3.85;;;;;;;;;;5063893;28;20201;-68
2022/04/03 10:47:45;;;;;;;4.53;4.13;;;;;;;;;;5063943;28;20239;-68
2022/04/03 10:50:12;;;;;;;3.53;3.28;;;;;;;;;;5064305;28;20197;-68
2022/04/03 10:52:57;;;;;;;3.50;3.20;;;;;;;;;;5064230;28;20254;-68
2022/04/03 10:55:26;;;;;;;2.88;2.78;;;;;;;;;;5064143;28;20197;-68
2022/04/03 10:57:53;;;;;;;3.35;3.10;;;;;;;;;;5063682;28;20213;-68
2022/04/03 11:00:34;;;;;;;3.50;3.22;;;;;;;;;;5064057;28;20200;-68
2022/04/03 11:03:01;;;;;;;3.53;3.17;;;;;;;;;;5064109;28;20393;-68
2022/04/03 11:05:43;;;;;;;3.72;3.50;;;;;;;;;;5063825;28;20232;-68
2022/04/03 11:08:17;;;;;;;3.63;3.30;;;;;;;;;;5063630;28;20391;-68
2022/04/03 11:10:48;;;;;;;2.95;2.85;;;;;;;;;;5064189;28;20204;-68
2022/04/03 11:13:14;;;;;;;3.97;3.33;;;;;;;;;;5063846;28;20550;-68
2022/04/03 11:15:50;;;;;;;4.32;3.70;;;;;;;;;;5063852;28;20243;-68
2022/04/03 11:18:28;;;;;;;4.68;3.50;;;;;;;;;;5063704;28;20220;-68
2022/04/03 11:21:08;;;;;;;4.10;3.60;;;;;;;;;;5063286;28;20200;-68
2022/04/03 11:23:35;;;;;;;3.00;2.83;;;;;;;;;;5063743;28;20197;-68
2022/04/03 11:26:02;;;;;;;4.07;2.80;;;;;;;;;;5063311;28;20209;-68
2022/04/03 11:28:29;;;;;;;3.42;3.13;;;;;;;;;;5063436;28;20384;-68
2022/04/03 11:30:57;;;;;;;3.13;2.90;;;;;;;;;;5063369;28;20201;-68
2022/04/03 11:33:23;;;;;;;4.03;2.92;;;;;;;;;;5063325;28;20527;-68
2022/04/03 11:35:49;;;;;;;3.03;2.85;;;;;;;;;;5063399;28;20363;-68
2022/04/03 11:38:17;;;;;;;4.40;4.00;;;;;;;;;;5062852;28;20224;-68
2022/04/03 11:40:44;;;;;;;4.85;3.65;;;;;;;;;;5062936;28;20197;-68
2022/04/03 11:43:11;;;;;;;3.60;3.03;;;;;;;;;;5063069;28;20204;-68
2022/04/03 11:45:38;;;;;;;3.85;3.47;;;;;;;;;;5062785;28;20197;-68
2022/04/03 11:48:19;;;;;;;3.72;3.08;;;;;;;;;;5062976;28;20193;-68
2022/04/03 11:50:45;;;;;;;3.45;3.15;;;;;;;;;;5062543;28;20196;-68
2022/04/03 11:53:12;;;;;;;2.78;2.67;;;;;;;;;;5062757;28;20422;-68
2022/04/03 11:55:38;;;;;;;3.17;2.90;;;;;;;;;;5063012;28;20197;-68
2022/04/03 11:58:05;;;;;;;3.53;3.22;;;;;;;;;;5062639;28;20283;-68
2022/04/03 12:00:31;;;;;;;3.20;2.97;;;;;;;;;;5062719;28;20201;-68
2022/04/03 12:02:57;;;;;;;3.72;3.42;;;;;;;;;;5062960;28;20205;-68
2022/04/03 12:05:25;;;;;;;2.72;2.53;;;;;;;;;;5062754;28;20398;-68
2022/04/03 12:07:52;;;;;;;2.40;2.17;;;;;;;;;;5062590;28;20206;-68
2022/04/03 12:10:24;;;;;;;2.67;2.58;;;;;;;;;;5062695;28;20235;-68
2022/04/03 12:12:51;;;;;;;2.97;2.67;;;;;;;;;;5062624;28;20203;-68
2022/04/03 12:15:20;;;;;;;2.65;2.53;;;;;;;;;;5062897;28;20497;-68
2022/04/03 12:17:46;;;;;;;4.38;3.10;;;;;;;;;;5062131;28;20221;-68
2022/04/03 12:20:13;;;;;;;3.05;2.65;;;;;;;;;;5062955;28;20205;-68
2022/04/03 12:22:42;;;;;;;3.10;2.88;;;;;;;;;;5062577;28;20197;-68
2022/04/03 12:25:09;;;;;;;2.90;2.75;;;;;;;;;;5062560;28;20216;-68
2022/04/03 12:27:37;;;;;;;3.42;3.00;;;;;;;;;;5062141;28;20496;-68
2022/04/03 12:30:04;;;;;;;3.35;3.15;;;;;;;;;;5062518;28;20203;-68
2022/04/03 12:32:35;;;;;;;4.50;3.17;;;;;;;;;;5061817;28;20235;-68
2022/04/03 12:35:01;;;;;;;2.80;2.60;;;;;;;;;;5062761;28;20242;-68
2022/04/03 12:37:32;;;;;;;2.47;2.33;;;;;;;;;;5062137;28;20488;-68
2022/04/03 12:40:07;;;;;;;4.25;3.20;;;;;;;;;;5062167;28;20242;-68
2022/04/03 12:42:34;;;;;;;3.03;2.63;;;;;;;;;;5062354;28;20196;-68
2022/04/03 12:45:02;;;;;;;3.17;2.95;;;;;;;;;;5062388;28;20197;-68
2022/04/03 12:47:36;;;;;;;2.95;2.70;;;;;;;;;;5062000;28;20497;-68
2022/04/03 12:50:10;;;;;;;3.78;3.15;;;;;;;;;;5062054;28;20205;-68
2022/04/03 12:52:37;;;;;;;2.67;2.47;;;;;;;;;;5061948;28;20428;-68
2022/04/03 12:55:06;;;;;;;2.92;2.80;;;;;;;;;;5062286;28;20197;-68
2022/04/03 13:00:17;;;;;;;3.30;3.00;;;;;;;;;;5062051;28;20207;-68
2022/04/03 13:02:44;;;;;;;3.03;2.72;;;;;;;;;;5062009;28;20391;-68
2022/04/03 13:05:15;;;;;;;3.00;2.70;;;;;;;;;;5062297;28;20244;-68
2022/04/03 13:07:41;;;;;;;4.55;4.13;;;;;;;;;;5061619;28;20212;-68
2022/04/03 13:10:13;;;;;;;5.05;4.28;;;;;;;;;;5062158;28;20197;-68
2022/04/03 13:12:39;;;;;;;3.03;2.90;;;;;;;;;;5061807;28;20235;-68
2022/04/03 13:15:06;;;;;;;3.70;3.10;;;;;;;;;;5061916;28;20254;-68
2022/04/03 13:17:32;;;;;;;2.80;2.70;;;;;;;;;;5061440;28;20277;-68
2022/04/03 13:19:58;;;;;;;3.30;3.10;;;;;;;;;;5062157;28;20242;-68
2022/04/03 13:22:24;;;;;;;3.40;3.10;;;;;;;;;;5062018;28;20259;-68
2022/04/03 13:24:51;;;;;;;5.97;3.08;;;;;;;;;;5061752;28;20213;-68
2022/04/03 13:27:18;;;;;;;3.25;2.97;;;;;;;;;;5061704;28;20193;-68
2022/04/03 13:29:44;;;;;;;2.90;2.70;;;;;;;;;;5061765;28;20220;-68
2022/04/03 13:32:11;;;;;;;3.92;3.03;;;;;;;;;;5061612;28;20255;-68
2022/04/03 13:34:37;;;;;;;4.57;2.97;;;;;;;;;;5061928;28;20423;-68
2022/04/03 13:37:03;;;;;;;4.72;2.72;;;;;;;;;;5061554;28;20417;-68
2022/04/03 13:39:30;;;;;;;2.67;2.30;;;;;;;;;;5061684;28;20227;-68
2022/04/03 13:41:56;;;;;;;2.72;2.58;;;;;;;;;;5062255;28;20239;-68
2022/04/03 13:44:25;;;;;;;2.97;2.80;;;;;;;;;;5065331;28;20205;-68
2022/04/03 13:46:52;;;;;;;3.00;2.80;;;;;;;;;;5065376;28;20251;-68
2022/04/03 13:49:18;;;;;;;4.15;2.88;;;;;;;;;;5065280;28;20193;-68
2022/04/03 13:51:45;;;;;;;4.80;3.10;;;;;;;;;;5065650;28;20205;-68
2022/04/03 13:54:11;;;;;;;3.30;3.00;;;;;;;;;;5065242;28;20430;-68
2022/04/03 13:56:37;;;;;;;2.85;2.65;;;;;;;;;;5065379;28;20375;-68
2022/04/03 13:59:03;;;;;;;2.95;2.67;;;;;;;;;;5064865;28;20228;-68
2022/04/03 14:01:31;;;;;;;2.72;2.47;;;;;;;;;;5065106;28;20259;-68
2022/04/03 14:03:58;;;;;;;2.97;2.85;;;;;;;;;;5065243;28;20364;-60
2022/04/03 14:06:24;;;;;;;3.42;2.88;;;;;;;;;;5064862;28;20221;-60
2022/04/03 14:08:50;;;;;;;2.88;2.53;;;;;;;;;;5065072;28;20197;-60
2022/04/03 14:11:17;;;;;;;3.00;2.80;;;;;;;;;;5064450;28;20201;-60
2022/04/03 14:13:43;;;;;;;2.85;2.60;;;;;;;;;;5064405;28;20192;-60
2022/04/03 14:16:09;;;;;;;2.63;2.42;;;;;;;;;;5061777;28;20201;-60
2022/04/03 14:18:37;;;;;;;2.67;2.58;;;;;;;;;;5064330;28;20212;-60
2022/04/03 14:21:05;;;;;;;2.90;2.70;;;;;;;;;;5064521;28;20193;-60
2022/04/03 14:23:32;;;;;;;2.50;2.40;;;;;;;;;;5062071;28;20493;-60
2022/04/03 14:25:58;;;;;;;4.32;3.05;;;;;;;;;;5064122;28;20208;-60
2022/04/03 14:28:25;;;;;;;2.65;2.45;;;;;;;;;;5064552;28;20193;-60
2022/04/03 14:30:51;;;;;;;2.80;2.60;;;;;;;;;;5064060;28;20204;-60
2022/04/03 14:33:17;;;;;;;3.58;2.83;;;;;;;;;;5064022;28;20197;-59
2022/04/03 14:35:45;;;;;;;3.50;3.20;;;;;;;;;;5063897;28;20200;-60